Terminal Aerodrome Forecast
Issued by NWS Sioux Falls, SD

Home | Current Version | Previous Version | Text Only | Print | Product List | Glossary On
Versions: 1 2 3 4 5 6 7 8 9 10 11 12 13 14 15 16 17 18 19 20 21 22 23
648
FTUS43 KFSD 231137
TAFHON
TAF
KHON 231137Z 2312/2412 35008KT P6SM VCTS OVC010CB
     FM231400 34007KT P6SM SHRA OVC010
     FM231900 02006KT 6SM SHRA OVC010
     FM232200 05008KT 6SM SHRA OVC010
     FM240500 08007KT 5SM SHRA OVC009=

USA.gov is the U.S. government's official web portal to all federal, state and local government web resources and services.